Time;durP1;ratioP1;P1;durP2;ratioP2;P2;SDS_P1;SDS_P2;PMS_P1;PMS_P2;Temp;Humidity;BMP_temperature;BMP_pressure;BME280_temperature;BME280_humidity;BME280_pressure;Samples;Min_cycle;Max_cycle;Signal;HPM_P1;HPM_P2
2022/01/25 00:08:19;;;;;;;23.92;14.65;;;;;;;10.45;56.30;102974.31;5013300;28;101104;-76
2022/01/25 00:10:26;;;;;;;25.67;14.90;;;;;;;10.74;55.79;102954.03;5010447;28;97195;-76
2022/01/25 00:24:23;;;;;;;25.73;14.63;;;;;;;10.00;57.14;102957.50;4988478;28;98845;-74
2022/01/25 00:27:04;;;;;;;25.20;13.70;;;;;;;10.34;56.29;102950.53;4976598;28;99271;-76
2022/01/25 00:29:45;;;;;;;26.85;15.50;;;;;;;10.51;55.70;102939.03;4975511;28;96950;-76
2022/01/25 00:32:12;;;;;;;24.90;13.95;;;;;;;10.66;55.50;102933.75;4980332;28;96900;-76
2022/01/25 00:34:40;;;;;;;25.98;15.05;;;;;;;10.85;54.43;102935.50;4982417;28;98750;-76
2022/01/25 00:37:06;;;;;;;25.88;15.38;;;;;;;10.91;54.30;102931.94;4977681;28;99028;-77
2022/01/25 00:39:34;;;;;;;27.52;15.55;;;;;;;10.76;54.46;102932.88;4979872;28;97234;-74
2022/01/25 00:42:01;;;;;;;26.25;14.98;;;;;;;10.53;55.47;102934.66;4979618;28;98883;-75
2022/01/25 00:44:34;;;;;;;25.70;15.05;;;;;;;10.38;55.10;102927.59;4977984;28;99527;-76
2022/01/25 00:47:01;;;;;;;27.55;15.65;;;;;;;10.47;54.85;102913.50;4981147;28;97644;-75
2022/01/25 00:49:29;;;;;;;26.10;15.45;;;;;;;10.36;54.90;102913.53;4981444;28;97617;-76
2022/01/25 00:52:05;;;;;;;31.23;16.05;;;;;;;10.07;56.00;102915.22;4977895;28;96957;-74
2022/01/25 00:54:33;;;;;;;27.25;15.48;;;;;;;10.31;55.83;102913.50;4979515;28;99463;-75
2022/01/25 00:57:00;;;;;;;24.83;14.40;;;;;;;10.00;55.98;102906.41;4982648;28;99176;-74
2022/01/25 00:59:28;;;;;;;27.15;15.68;;;;;;;10.18;55.85;102906.47;4981799;28;97593;-74
2022/01/25 01:01:57;;;;;;;26.40;15.95;;;;;;;10.40;55.24;102902.06;4983373;28;97167;-74
2022/01/25 01:04:23;;;;;;;28.98;16.52;;;;;;;10.44;54.91;102902.94;4984691;28;99389;-74
2022/01/25 01:06:51;;;;;;;28.63;16.58;;;;;;;10.52;54.79;102901.16;4980270;28;99008;-74
2022/01/25 01:09:21;;;;;;;26.25;15.98;;;;;;;10.70;54.06;102894.06;4983990;28;96962;-76
2022/01/25 01:11:54;;;;;;;31.33;15.60;;;;;;;10.60;54.84;102888.81;4985839;28;97244;-75
2022/01/25 01:14:36;;;;;;;30.90;16.02;;;;;;;10.68;54.33;102895.00;4977434;28;97934;-74
2022/01/25 01:17:18;;;;;;;27.45;15.18;;;;;;;10.66;54.25;102894.97;4979209;28;98870;-75
2022/01/25 01:30:55;;;;;;;29.30;17.60;;;;;;;10.58;54.81;102890.56;4963533;28;97141;-74
2022/01/25 01:44:50;;;;;;;32.05;17.25;;;;;;;10.10;56.23;102896.75;4893811;28;97946;-72
2022/01/25 01:47:23;;;;;;;28.80;17.08;;;;;;;9.98;56.68;102898.50;4892373;28;98969;-72
2022/01/25 01:49:49;;;;;;;28.92;16.95;;;;;;;9.65;58.00;102894.94;4912819;28;98808;-73
2022/01/25 01:52:16;;;;;;;28.63;16.83;;;;;;;10.11;57.21;102898.53;4938307;28;96924;-72
2022/01/25 01:54:42;;;;;;;32.83;17.35;;;;;;;9.96;56.35;102900.28;4937683;28;97177;-74
2022/01/25 01:57:10;;;;;;;28.73;16.65;;;;;;;10.12;56.76;102893.22;4933512;28;99060;-74
2022/01/25 01:59:36;;;;;;;28.10;16.90;;;;;;;10.31;55.83;102897.66;4939404;28;99059;-74
2022/01/25 02:02:03;;;;;;;29.60;17.75;;;;;;;10.55;55.48;102899.41;4934622;28;96946;-75
2022/01/25 02:04:30;;;;;;;30.65;16.92;;;;;;;10.52;54.60;102896.75;4933058;28;98653;-73
2022/01/25 02:06:56;;;;;;;31.05;18.15;;;;;;;10.37;55.99;102886.22;4938161;28;99157;-73
2022/01/25 02:09:23;;;;;;;29.85;17.42;;;;;;;10.75;54.86;102884.41;4934361;28;97995;-74
2022/01/25 02:11:49;;;;;;;29.05;17.15;;;;;;;10.54;54.22;102884.44;4932359;28;96743;-74
2022/01/25 02:14:17;;;;;;;30.55;17.75;;;;;;;10.06;55.69;102885.28;4933104;28;98693;-74
2022/01/25 02:16:59;;;;;;;34.38;18.95;;;;;;;10.00;55.38;102887.94;4931416;28;97842;-73
2022/01/25 02:22:33;;;;;;;36.00;18.52;;;;;;;9.45;57.48;102889.59;4932196;28;96883;-73
2022/01/25 02:25:00;;;;;;;35.50;18.92;;;;;;;9.63;57.95;102879.09;4931782;28;96798;-72
2022/01/25 02:27:26;;;;;;;41.45;19.75;;;;;;;9.64;56.81;102883.50;4934366;28;99632;-73
2022/01/25 02:29:52;;;;;;;40.05;20.48;;;;;;;9.71;56.87;102892.31;4935563;28;98987;-74
2022/01/25 02:32:19;;;;;;;39.60;19.73;;;;;;;9.35;56.70;102886.03;4931867;28;98793;-73
2022/01/25 02:34:45;;;;;;;40.40;21.02;;;;;;;9.22;57.59;102881.59;4935547;28;98817;-73
2022/01/25 02:37:15;;;;;;;47.80;22.98;;;;;;;9.08;57.40;102876.25;4933518;28;99497;-74
2022/01/25 02:39:43;;;;;;;45.95;21.90;;;;;;;8.78;57.75;102877.00;4928627;28;99770;-74
2022/01/25 02:42:10;;;;;;;43.33;21.13;;;;;;;8.76;59.15;102875.22;4929574;28;98381;-73
2022/01/25 02:44:37;;;;;;;44.35;21.75;;;;;;;9.23;57.77;102872.81;4931822;28;96890;-73
2022/01/25 02:49:49;;;;;;;49.80;21.17;;;;;;;9.23;56.80;102871.94;4931541;28;97148;-73
2022/01/25 02:52:17;;;;;;;45.00;20.98;;;;;;;8.95;58.10;102870.91;4930819;28;96905;-73
2022/01/25 02:54:43;;;;;;;49.30;22.45;;;;;;;9.02;57.34;102870.97;4932671;28;96831;-74
2022/01/25 02:57:09;;;;;;;51.03;22.70;;;;;;;9.04;56.96;102865.69;4930715;28;98984;-75
2022/01/25 02:59:36;;;;;;;54.97;23.88;;;;;;;9.18;56.63;102872.81;4935478;28;99096;-72
2022/01/25 03:02:02;;;;;;;51.17;22.92;;;;;;;9.42;56.11;102861.44;4936241;28;96891;-73
2022/01/25 03:04:29;;;;;;;50.85;22.92;;;;;;;8.92;56.34;102865.66;4937102;28;97262;-75
2022/01/25 03:06:55;;;;;;;53.88;24.33;;;;;;;8.89;56.78;102855.97;4934052;28;99018;-75
2022/01/25 03:09:23;;;;;;;49.92;23.30;;;;;;;9.09;56.72;102864.84;4929141;28;98931;-72
2022/01/25 03:11:54;;;;;;;50.85;23.08;;;;;;;9.41;55.77;102861.44;4932999;28;96804;-74
2022/01/25 03:14:23;;;;;;;47.28;22.83;;;;;;;9.55;55.67;102870.25;4937870;28;96754;-74
2022/01/25 03:17:05;;;;;;;49.42;23.60;;;;;;;9.84;54.16;102860.66;4932822;28;98909;-73
2022/01/25 03:19:46;;;;;;;50.92;22.80;;;;;;;9.68;54.58;102861.50;4931299;28;99308;-75
2022/01/25 03:22:17;;;;;;;48.63;23.80;;;;;;;9.66;54.86;102857.06;4932272;28;97097;-74
2022/01/25 03:24:47;;;;;;;53.25;23.15;;;;;;;9.71;54.57;102853.59;4926968;28;97729;-74
2022/01/25 03:27:13;;;;;;;50.75;23.35;;;;;;;9.79;54.09;102849.19;4929865;28;99141;-75
2022/01/25 03:29:39;;;;;;;48.88;22.95;;;;;;;9.78;54.16;102857.97;4932592;28;99126;-74
2022/01/25 03:32:06;;;;;;;49.20;22.80;;;;;;;9.19;55.14;102861.34;4935707;28;96742;-74
2022/01/25 03:34:33;;;;;;;48.20;23.42;;;;;;;9.26;54.64;102858.72;4933207;28;98604;-74
2022/01/25 03:36:59;;;;;;;48.05;23.00;;;;;;;9.31;54.81;102864.94;4932543;28;98959;-72
2022/01/25 03:39:25;;;;;;;52.05;24.55;;;;;;;8.92;56.52;102865.66;4929290;28;99206;-73
2022/01/25 03:41:53;;;;;;;52.33;23.55;;;;;;;9.40;54.12;102872.84;4934339;28;97360;-73
2022/01/25 03:44:19;;;;;;;53.65;23.73;;;;;;;9.59;54.82;102869.38;4932381;28;97413;-73
2022/01/25 03:46:59;;;;;;;53.95;23.23;;;;;;;9.27;54.32;102869.28;4941036;28;99087;-73
2022/01/25 03:52:12;;;;;;;52.72;24.17;;;;;;;9.38;54.38;102859.69;4929792;28;96756;-73
2022/01/25 03:54:38;;;;;;;49.22;22.25;;;;;;;9.41;54.09;102850.88;4938501;28;97022;-73
2022/01/25 03:57:06;;;;;;;54.20;24.35;;;;;;;9.30;54.51;102849.97;4935806;28;99141;-72
2022/01/25 03:59:32;;;;;;;50.72;23.17;;;;;;;9.48;53.88;102848.25;4934143;28;98959;-72
2022/01/25 04:01:59;;;;;;;54.33;22.02;;;;;;;9.57;54.03;102850.03;4932746;28;97158;-72
2022/01/25 04:04:26;;;;;;;52.50;23.10;;;;;;;9.22;54.55;102849.94;4937385;28;97714;-72
2022/01/25 04:06:54;;;;;;;50.30;22.63;;;;;;;9.27;54.16;102844.66;4938341;28;98989;-72
2022/01/25 04:09:21;;;;;;;54.63;24.10;;;;;;;9.67;53.19;102835.09;4932576;28;99551;-72
2022/01/25 04:11:48;;;;;;;46.65;21.88;;;;;;;9.68;53.12;102840.38;4935174;28;96912;-72
2022/01/25 04:14:15;;;;;;;44.85;21.38;;;;;;;9.83;52.17;102840.41;4934686;28;96838;-72
2022/01/25 04:16:50;;;;;;;40.80;19.45;;;;;;;9.59;51.67;102829.78;4931518;28;99315;-73
2022/01/25 04:19:25;;;;;;;40.90;19.67;;;;;;;9.54;53.21;102818.34;4930025;28;99852;-73
2022/01/25 04:24:57;;;;;;;42.65;19.38;;;;;;;9.43;52.90;102820.09;4934878;28;96777;-72
2022/01/25 04:27:23;;;;;;;35.92;17.63;;;;;;;9.23;52.67;102813.88;4925008;28;99257;-72
2022/01/25 04:29:51;;;;;;;38.75;18.27;;;;;;;8.99;53.70;102814.72;4933134;28;98936;-69
2022/01/25 04:32:20;;;;;;;41.90;18.90;;;;;;;9.02;54.01;102804.16;4931602;28;96881;-72
2022/01/25 04:35:07;;;;;;;36.88;17.98;;;;;;;9.10;53.37;102807.69;4928318;28;96924;-73
2022/01/25 04:51:36;;;;;;;38.88;17.92;;;;;;;9.44;52.33;102819.22;4922332;28;98438;-74
2022/01/25 04:54:09;;;;;;;34.20;16.85;;;;;;;9.21;52.55;102816.50;4932145;28;97610;-74
2022/01/25 04:56:41;;;;;;;36.03;17.50;;;;;;;9.50;52.14;102812.19;4933954;28;98451;-73
2022/01/25 04:59:14;;;;;;;35.63;16.05;;;;;;;9.60;52.16;102821.88;4933269;28;99046;-74
2022/01/25 05:01:43;;;;;;;37.33;16.95;;;;;;;9.42;52.34;102813.94;4933731;28;98529;-73
2022/01/25 05:04:13;;;;;;;40.08;17.90;;;;;;;8.84;52.41;102814.63;4935783;28;96772;-73
2022/01/25 05:06:42;;;;;;;37.33;17.67;;;;;;;9.01;53.26;102827.00;4940879;28;96954;-73
2022/01/25 05:09:11;;;;;;;40.17;18.25;;;;;;;9.19;52.69;102824.41;4937325;28;98985;-72
2022/01/25 05:11:41;;;;;;;42.10;18.65;;;;;;;9.53;52.62;102821.88;4934829;28;98966;-72
2022/01/25 05:14:19;;;;;;;37.97;17.25;;;;;;;9.43;52.53;102828.03;4937797;28;96805;-73
2022/01/25 05:16:53;;;;;;;40.10;18.52;;;;;;;8.96;53.19;102819.94;4933694;28;97620;-74
2022/01/25 05:19:26;;;;;;;45.42;18.85;;;;;;;8.78;54.00;102824.28;4934949;28;99386;-73
2022/01/25 05:22:07;;;;;;;39.70;17.67;;;;;;;8.92;53.67;102821.72;4935712;28;99313;-73
2022/01/25 05:24:36;;;;;;;39.95;17.90;;;;;;;9.15;53.55;102821.78;4936348;28;97315;-73
2022/01/25 05:27:02;;;;;;;39.10;18.05;;;;;;;9.58;52.58;102822.78;4936221;28;96852;-73
2022/01/25 05:29:29;;;;;;;44.88;18.92;;;;;;;9.28;51.84;102830.59;4939545;28;97832;-73
2022/01/25 05:31:56;;;;;;;41.08;18.60;;;;;;;9.50;52.82;102822.75;4934496;28;99612;-75
2022/01/25 05:34:23;;;;;;;40.95;19.05;;;;;;;9.22;52.80;102833.22;4937661;28;96797;-73
2022/01/25 05:36:49;;;;;;;43.65;19.23;;;;;;;9.68;52.04;102840.38;4934718;28;98032;-74
2022/01/25 05:39:19;;;;;;;37.15;17.15;;;;;;;9.38;52.25;102835.03;4932008;28;98954;-74
2022/01/25 05:41:54;;;;;;;39.58;18.35;;;;;;;9.88;51.70;102835.13;4934159;28;98927;-72
2022/01/25 05:44:36;;;;;;;41.70;18.70;;;;;;;9.57;51.89;102836.84;4935589;28;96806;-73
2022/01/25 05:47:06;;;;;;;37.35;17.63;;;;;;;9.59;52.07;102840.34;4932676;28;98372;-73
2022/01/25 05:49:34;;;;;;;39.45;17.17;;;;;;;9.69;52.10;102841.25;4935527;28;98988;-73
2022/01/25 05:52:01;;;;;;;42.05;17.67;;;;;;;9.80;51.41;102844.78;4936883;28;99165;-73
2022/01/25 05:54:27;;;;;;;38.83;18.10;;;;;;;9.96;50.89;102839.53;4934982;28;96803;-73
2022/01/25 05:56:53;;;;;;;39.85;18.33;;;;;;;9.04;52.29;102837.56;4940764;28;96784;-73
2022/01/25 05:59:20;;;;;;;42.15;18.08;;;;;;;9.45;52.85;102842.09;4942485;28;99153;-73
2022/01/25 06:01:46;;;;;;;40.97;18.52;;;;;;;9.39;52.99;102834.13;4936116;28;99238;-73
2022/01/25 06:04:14;;;;;;;38.70;17.38;;;;;;;9.20;52.98;102834.09;4939373;28;96878;-76
2022/01/25 06:06:41;;;;;;;44.03;18.10;;;;;;;9.17;52.94;102842.03;4934468;28;96979;-74
2022/01/25 06:09:07;;;;;;;43.05;19.00;;;;;;;9.46;52.48;102836.81;4936495;28;98776;-75
2022/01/25 06:11:34;;;;;;;40.05;17.65;;;;;;;9.23;52.84;102838.50;4942093;28;98185;-75
2022/01/25 06:14:00;;;;;;;43.78;20.02;;;;;;;9.13;53.19;102834.06;4938554;28;97297;-75
2022/01/25 06:16:28;;;;;;;38.83;17.75;;;;;;;8.92;53.66;102837.53;4940803;28;99004;-76
2022/01/25 06:18:54;;;;;;;37.08;18.13;;;;;;;9.10;53.43;102828.81;4936406;28;98974;-75
2022/01/25 06:21:22;;;;;;;38.83;18.42;;;;;;;9.30;53.01;102831.50;4935944;28;98979;-75
2022/01/25 06:23:48;;;;;;;43.22;18.63;;;;;;;9.36;52.32;102832.41;4933028;28;98752;-72
2022/01/25 06:26:15;;;;;;;39.03;18.58;;;;;;;9.05;52.83;102839.34;4933203;28;98499;-73
2022/01/25 06:28:41;;;;;;;39.63;18.20;;;;;;;9.42;52.89;102850.00;4937853;28;99301;-73
2022/01/25 06:31:08;;;;;;;44.50;19.40;;;;;;;9.62;52.71;102847.41;4928665;28;98970;-73
2022/01/25 06:33:34;;;;;;;40.90;18.40;;;;;;;9.37;52.53;102846.47;4935833;28;97777;-74
2022/01/25 06:36:01;;;;;;;43.80;18.77;;;;;;;8.77;53.17;102837.44;4931108;28;97846;-75
2022/01/25 06:38:28;;;;;;;40.50;18.38;;;;;;;9.43;53.08;102831.53;4931169;28;99107;-74
2022/01/25 06:40:55;;;;;;;43.00;19.10;;;;;;;9.75;52.53;102825.41;4935822;28;99163;-74
2022/01/25 06:43:21;;;;;;;42.22;17.90;;;;;;;9.55;52.87;102825.41;4933323;28;97163;-73
2022/01/25 06:45:55;;;;;;;41.08;19.08;;;;;;;9.46;53.26;102817.44;4935397;28;97028;-75
2022/01/25 06:48:22;;;;;;;48.88;19.67;;;;;;;9.48;52.65;102828.91;4932527;28;99279;-74
2022/01/25 06:50:48;;;;;;;45.72;19.83;;;;;;;9.72;52.89;102826.28;4931125;28;99640;-73
2022/01/25 06:53:14;;;;;;;47.67;21.08;;;;;;;9.08;53.79;102831.44;4932848;28;98487;-70
2022/01/25 06:55:42;;;;;;;47.50;20.90;;;;;;;9.58;53.54;102828.91;4930272;28;98437;-73
2022/01/25 06:58:09;;;;;;;46.35;20.38;;;;;;;9.68;52.92;102832.44;4931819;28;100110;-72
2022/01/25 07:00:36;;;;;;;48.55;21.83;;;;;;;9.83;52.34;102829.84;4931057;28;99219;-71
2022/01/25 07:03:02;;;;;;;51.30;22.10;;;;;;;9.97;51.66;102833.38;4931739;28;97251;-71
2022/01/25 07:05:29;;;;;;;45.45;20.23;;;;;;;9.82;52.23;102828.06;4930336;28;98111;-72
2022/01/25 07:07:55;;;;;;;48.33;21.70;;;;;;;9.84;51.64;102836.00;4926450;28;99048;-72
2022/01/25 07:10:22;;;;;;;49.78;22.30;;;;;;;9.30;53.73;102853.50;4927349;28;98839;-70
2022/01/25 07:12:50;;;;;;;51.30;22.67;;;;;;;9.54;53.04;102853.53;4930229;28;98934;-71
2022/01/25 07:15:16;;;;;;;52.13;23.17;;;;;;;9.46;54.11;102849.13;4932103;28;98042;-71
2022/01/25 07:17:43;;;;;;;51.83;22.73;;;;;;;9.76;53.04;102856.22;4930557;28;99772;-71
2022/01/25 07:20:10;;;;;;;56.72;22.55;;;;;;;9.46;53.67;102855.28;4928493;28;99333;-71
2022/01/25 07:22:38;;;;;;;51.22;23.67;;;;;;;9.57;53.56;102853.56;4931434;28;96884;-73
2022/01/25 07:25:07;;;;;;;56.92;23.08;;;;;;;9.44;53.91;102856.16;4931201;28;97051;-71
2022/01/25 07:27:34;;;;;;;50.45;22.17;;;;;;;9.65;53.34;102848.28;4928975;28;99215;-73
2022/01/25 07:30:01;;;;;;;54.03;24.02;;;;;;;9.85;53.03;102843.00;4930881;28;99307;-74
2022/01/25 07:32:28;;;;;;;55.47;23.60;;;;;;;9.62;52.74;102840.38;4932451;28;99239;-72
2022/01/25 07:34:54;;;;;;;51.33;22.58;;;;;;;9.73;52.78;102849.16;4928654;28;98139;-73
2022/01/25 07:37:20;;;;;;;53.22;23.80;;;;;;;9.56;53.05;102837.72;4929231;28;99079;-74
2022/01/25 07:39:48;;;;;;;51.28;22.15;;;;;;;9.56;53.13;102856.19;4951166;22;99192;-79
2022/01/25 07:42:16;;;;;;;53.72;22.30;;;;;;;9.94;52.99;102840.41;4938251;28;97725;-81
2022/01/25 07:44:42;;;;;;;57.38;24.27;;;;;;;9.78;52.69;102830.72;4945201;28;96638;-80
2022/01/25 07:47:10;;;;;;;56.75;24.88;;;;;;;9.90;53.16;102833.38;4952764;28;101367;-80
2022/01/25 07:49:37;;;;;;;58.28;23.90;;;;;;;9.92;52.47;102834.22;4937307;28;101400;-81
2022/01/25 07:52:05;;;;;;;52.40;24.05;;;;;;;9.58;53.53;102843.91;4937309;28;97927;-81
2022/01/25 07:54:32;;;;;;;62.10;25.38;;;;;;;9.43;54.66;102850.00;4938267;28;96885;-80
2022/01/25 07:56:59;;;;;;;52.75;24.08;;;;;;;9.22;54.82;102851.69;4932030;28;98341;-80
2022/01/25 07:59:26;;;;;;;61.78;26.08;;;;;;;9.60;54.45;102850.03;4936376;28;98046;-80
2022/01/25 08:01:53;;;;;;;57.50;25.55;;;;;;;9.74;54.03;102845.66;4934798;28;96966;-81
2022/01/25 08:04:21;;;;;;;57.72;25.05;;;;;;;9.38;55.14;102848.25;4942636;28;96800;-80
2022/01/25 08:06:48;;;;;;;54.50;24.40;;;;;;;9.28;54.90;102843.78;4936770;28;97917;-80
2022/01/25 08:09:14;;;;;;;56.70;25.05;;;;;;;9.55;54.49;102838.59;4943265;28;98807;-81
2022/01/25 08:11:42;;;;;;;65.32;25.55;;;;;;;9.51;55.03;102844.75;4937249;28;97259;-81
2022/01/25 08:14:17;;;;;;;65.18;25.85;;;;;;;9.36;55.31;102849.97;4934754;28;97527;-81
2022/01/25 08:16:46;;;;;;;54.88;23.35;;;;;;;9.65;54.28;102843.00;4941967;28;98788;-81
2022/01/25 08:19:14;;;;;;;52.25;24.02;;;;;;;9.76;54.47;102854.47;4939385;28;101418;-82
2022/01/25 08:21:42;;;;;;;58.45;24.35;;;;;;;9.70;54.40;102840.38;4941460;28;96803;-80
2022/01/25 08:24:09;;;;;;;56.33;23.60;;;;;;;9.85;54.34;102838.63;4935229;28;97334;-82
2022/01/25 08:26:39;;;;;;;57.08;25.70;;;;;;;10.10;53.94;102839.53;4931921;28;99031;-81
2022/01/25 08:29:06;;;;;;;59.63;24.23;;;;;;;10.11;53.17;102825.41;4933584;28;99225;-81
2022/01/25 08:31:35;;;;;;;58.80;23.73;;;;;;;10.10;53.22;102836.88;4941165;28;96800;-81
2022/01/25 08:34:02;;;;;;;56.63;24.20;;;;;;;10.31;52.61;102833.34;4942475;28;96851;-81
2022/01/25 08:36:29;;;;;;;55.40;23.67;;;;;;;10.57;52.84;102831.53;4946043;28;99446;-81
2022/01/25 08:38:57;;;;;;;54.08;23.90;;;;;;;10.28;52.80;102828.97;4935040;28;98779;-81
2022/01/25 08:41:31;;;;;;;47.90;23.35;;;;;;;10.37;52.43;102836.00;4943153;28;96842;-80
2022/01/25 08:43:58;;;;;;;54.42;23.73;;;;;;;10.41;52.29;102835.13;4942054;28;97236;-79
2022/01/25 08:46:27;;;;;;;53.53;22.65;;;;;;;10.23;52.73;102832.50;4938644;28;100159;-81
2022/01/25 08:48:53;;;;;;;53.95;23.13;;;;;;;10.54;52.44;102838.59;4937366;28;98021;-81
2022/01/25 08:51:20;;;;;;;46.70;22.55;;;;;;;10.48;52.15;102835.97;4938593;28;96891;-80
2022/01/25 08:54:13;;;;;;;;;;;;;;;;;;;;;
2022/01/25 08:57:13;;;;;;;53.65;23.00;;;;;;;9.18;55.35;102835.88;4939968;28;129698;-82
2022/01/25 08:59:40;;;;;;;57.65;24.83;;;;;;;8.94;55.54;102833.13;4928716;28;99205;-81
2022/01/25 09:02:26;;;;;;;59.03;25.33;;;;;;;9.57;55.63;102832.44;4935491;28;96904;-82
2022/01/25 09:04:53;;;;;;;59.27;24.83;;;;;;;9.78;54.78;102842.13;4935908;28;97467;-79
2022/01/25 09:07:19;;;;;;;53.53;23.77;;;;;;;9.95;53.81;102834.22;4934516;28;98995;-78
2022/01/25 09:09:55;;;;;;;54.55;23.45;;;;;;;10.02;53.98;102835.13;4937692;28;100769;-84
2022/01/25 09:12:27;;;;;;;50.90;22.13;;;;;;;9.36;54.67;102831.50;4945741;28;97233;-82
2022/01/25 09:14:54;;;;;;;51.83;24.10;;;;;;;9.61;55.70;102825.41;4937369;28;99497;-81
2022/01/25 09:17:20;;;;;;;54.67;23.80;;;;;;;9.90;54.86;102825.44;4933207;28;99311;-80
2022/01/25 09:19:47;;;;;;;50.10;22.98;;;;;;;9.90;54.65;102831.59;4935426;28;98336;-80
2022/01/25 09:22:19;;;;;;;49.20;21.52;;;;;;;9.53;55.62;102833.31;4939279;28;98085;-83
2022/01/25 09:25:50;;;;;;;53.08;24.25;;;;;;;9.60;55.57;102832.44;4939425;28;96927;-82
2022/01/25 09:33:28;;;;;;;48.55;22.67;;;;;;;9.95;54.86;102828.94;4953510;28;96821;-81
2022/01/25 09:35:57;;;;;;;48.05;21.52;;;;;;;9.36;55.88;102836.78;4955562;28;97281;-79
2022/01/25 09:38:26;;;;;;;56.20;23.25;;;;;;;9.65;55.89;102823.66;4949284;28;98991;-81
2022/01/25 09:40:54;;;;;;;54.25;22.63;;;;;;;9.57;56.89;102823.66;4954072;28;99283;-80
2022/01/25 09:43:44;;;;;;;53.28;23.60;;;;;;;9.75;55.90;102831.59;4956038;28;97195;-80
2022/01/25 09:46:11;;;;;;;48.92;21.55;;;;;;;9.93;54.72;102826.31;4957727;28;97546;-80
2022/01/25 09:48:41;;;;;;;51.63;22.70;;;;;;;9.07;58.28;102831.41;4960477;28;98515;-82
2022/01/25 09:51:47;;;;;;;51.40;21.88;;;;;;;9.68;56.65;102824.53;4955909;28;97714;-83
2022/01/25 09:54:44;;;;;;;52.97;22.10;;;;;;;9.63;57.37;102826.28;4957489;28;96900;-78
2022/01/25 09:57:11;;;;;;;51.40;21.83;;;;;;;10.24;55.32;102827.19;4957812;28;97236;-79
2022/01/25 09:59:39;;;;;;;53.70;21.98;;;;;;;10.28;55.20;102833.38;4986751;22;99297;-79
2022/01/25 10:02:22;;;;;;;49.80;20.83;;;;;;;10.35;54.10;102829.84;4982018;28;97802;-82
2022/01/25 10:04:55;;;;;;;54.08;21.80;;;;;;;10.48;54.82;102836.88;4974474;28;96764;-75
2022/01/25 10:07:43;;;;;;;46.28;20.75;;;;;;;9.88;55.67;102822.78;4983553;28;98968;-83
2022/01/25 10:10:12;;;;;;;45.55;20.52;;;;;;;9.97;55.82;102827.19;4983734;28;99813;-81
2022/01/25 10:15:32;;;;;;;46.75;19.80;;;;;;;10.43;54.77;102822.78;4987950;28;96742;-80
2022/01/25 10:21:28;;;;;;;43.50;18.35;;;;;;;9.81;56.47;102802.53;5006006;22;96583;-80
2022/01/25 10:33:27;;;;;;;44.78;18.92;;;;;;;10.10;56.26;102806.94;5250849;22;97074;-84
2022/01/25 10:38:51;;;;;;;44.10;20.23;;;;;;;10.39;55.67;102798.09;4961761;28;96738;-79
2022/01/25 10:41:44;;;;;;;44.00;19.13;;;;;;;10.40;54.76;102806.91;4969441;28;96997;-80
2022/01/25 10:48:07;;;;;;;40.97;18.10;;;;;;;10.76;54.26;102796.22;4948917;28;97582;-79
2022/01/25 10:50:46;;;;;;;43.65;19.77;;;;;;;10.27;55.58;102810.47;4970792;28;96890;-79
2022/01/25 10:53:19;;;;;;;47.55;20.60;;;;;;;10.08;55.88;102798.13;4966406;28;97257;-75
2022/01/25 10:55:51;;;;;;;45.40;19.50;;;;;;;10.23;56.70;102803.44;4960213;28;99007;-75
2022/01/25 10:58:23;;;;;;;43.75;18.55;;;;;;;10.50;55.55;102800.72;4966048;28;97596;-79
2022/01/25 11:01:12;;;;;;;40.42;16.83;;;;;;;10.13;56.23;102796.34;4976361;28;96939;-80
2022/01/25 11:04:31;;;;;;;41.25;17.75;;;;;;;9.88;56.07;102804.31;4952029;28;96853;-81
2022/01/25 11:07:08;;;;;;;40.95;17.20;;;;;;;10.25;55.65;102793.72;4935965;28;96908;-79
2022/01/25 11:09:45;;;;;;;35.03;15.77;;;;;;;10.04;55.82;102791.09;4965921;28;98027;-80
2022/01/25 11:12:23;;;;;;;40.30;16.08;;;;;;;9.87;55.64;102794.63;4974138;28;96896;-78
2022/01/25 11:15:04;;;;;;;36.75;16.83;;;;;;;10.13;56.18;102781.38;4965238;28;97055;-80
2022/01/25 11:17:35;;;;;;;37.92;16.13;;;;;;;10.25;56.19;102788.44;4966383;28;100917;-80
2022/01/25 11:20:06;;;;;;;32.90;15.88;;;;;;;9.92;55.82;102776.13;4961783;28;97199;-81
2022/01/25 11:22:33;;;;;;;34.22;15.13;;;;;;;9.95;56.39;102774.38;4955860;28;96719;-80
2022/01/25 11:25:01;;;;;;;30.45;13.93;;;;;;;10.34;55.12;102783.16;4962270;28;98484;-79
2022/01/25 11:27:42;;;;;;;31.40;14.07;;;;;;;10.18;55.26;102784.03;4960603;28;97822;-78
2022/01/25 11:30:14;;;;;;;31.50;12.95;;;;;;;10.28;55.67;102769.97;4965602;28;101066;-79
2022/01/25 11:32:47;;;;;;;30.67;13.60;;;;;;;10.28;55.25;102770.84;4961814;28;96743;-78
2022/01/25 11:35:15;;;;;;;27.95;13.20;;;;;;;10.04;55.53;102770.84;4962055;28;96854;-76
2022/01/25 11:37:47;;;;;;;28.77;13.27;;;;;;;10.12;55.79;102768.19;4961516;28;99017;-80
2022/01/25 11:40:40;;;;;;;25.08;11.30;;;;;;;10.30;55.44;102773.47;4956610;28;99432;-79
2022/01/25 11:43:22;;;;;;;28.55;12.10;;;;;;;10.12;55.34;102769.06;4967031;28;96981;-79
2022/01/25 11:45:52;;;;;;;25.23;12.10;;;;;;;10.02;55.04;102769.09;4966063;28;97808;-79
2022/01/25 11:48:23;;;;;;;32.88;13.35;;;;;;;10.17;55.55;102771.75;4966863;28;99342;-79
2022/01/25 11:50:49;;;;;;;27.17;13.25;;;;;;;10.48;54.68;102780.47;4955157;28;98156;-79
2022/01/25 11:53:24;;;;;;;28.38;12.82;;;;;;;10.74;53.46;102766.28;4956426;28;97540;-78
2022/01/25 11:55:53;;;;;;;28.20;12.93;;;;;;;10.56;53.43;102773.41;4963275;28;96955;-78
2022/01/25 11:58:32;;;;;;;23.92;11.55;;;;;;;9.81;54.82;102772.63;4960394;28;101418;-79
2022/01/25 12:01:01;;;;;;;26.45;12.25;;;;;;;10.38;55.14;102775.19;4954526;28;98667;-78
2022/01/25 12:03:30;;;;;;;28.67;12.25;;;;;;;10.70;54.18;102769.81;4956299;28;96795;-79
2022/01/25 12:06:03;;;;;;;25.13;11.13;;;;;;;10.57;54.22;102768.09;4964330;28;98207;-79
2022/01/25 12:08:39;;;;;;;29.95;13.68;;;;;;;10.53;54.64;102765.47;4955534;28;98294;-78
2022/01/25 12:11:34;;;;;;;25.35;11.70;;;;;;;10.63;53.21;102759.28;4952400;28;101845;-78
2022/01/25 12:14:24;;;;;;;29.15;12.02;;;;;;;10.24;54.96;102755.00;4946206;28;97748;-78
2022/01/25 12:16:56;;;;;;;26.20;12.18;;;;;;;10.17;55.09;102761.19;4953760;28;97536;-78
2022/01/25 12:19:33;;;;;;;28.25;13.18;;;;;;;10.33;55.09;102754.97;4960820;28;98435;-80
2022/01/25 12:22:15;;;;;;;36.33;11.98;;;;;;;10.22;55.37;102759.41;4959618;28;99383;-79
2022/01/25 12:25:00;;;;;;;30.35;14.15;;;;;;;9.85;55.27;102748.84;4960486;28;96881;-79
2022/01/25 12:27:42;;;;;;;31.13;13.30;;;;;;;10.12;55.03;102753.22;4961132;28;96746;-78
2022/01/25 12:30:13;;;;;;;28.45;12.70;;;;;;;9.79;58.08;102743.56;4969965;28;101345;-76
2022/01/25 12:32:50;;;;;;;24.80;12.95;;;;;;;9.91;56.96;102743.56;4961773;28;98077;-79
2022/01/25 12:35:21;;;;;;;34.20;14.00;;;;;;;9.92;56.89;102742.66;4956611;28;96807;-73
2022/01/25 12:38:05;;;;;;;29.42;14.05;;;;;;;10.18;56.05;102739.13;4966384;28;97266;-78
2022/01/25 12:40:42;;;;;;;30.63;13.30;;;;;;;10.34;55.67;102738.22;4979264;28;98550;-80
2022/01/25 12:43:11;;;;;;;26.10;12.20;;;;;;;9.95;55.65;102729.47;4975706;28;97614;-79
2022/01/25 12:45:44;;;;;;;30.92;13.55;;;;;;;9.65;58.24;102737.41;4979507;28;97941;-79
2022/01/25 12:48:12;;;;;;;27.35;13.23;;;;;;;9.36;58.53;102741.81;4967095;28;97002;-78
2022/01/25 12:51:04;;;;;;;29.75;13.52;;;;;;;9.38;59.73;102729.50;4966051;28;102314;-78
2022/01/25 12:53:32;;;;;;;35.15;13.82;;;;;;;10.09;57.48;102726.81;4968199;28;96971;-79
2022/01/25 12:56:02;;;;;;;32.00;13.35;;;;;;;10.47;56.14;102734.66;4974341;28;96893;-78
2022/01/25 12:58:35;;;;;;;30.77;13.77;;;;;;;10.84;54.73;102734.47;4980173;28;96652;-77
2022/01/25 13:01:07;;;;;;;37.47;16.67;;;;;;;10.74;54.67;102731.03;4969186;28;97789;-77
2022/01/25 13:03:36;;;;;;;30.35;13.23;;;;;;;10.48;55.33;102720.56;4964965;28;98824;-77
2022/01/25 13:06:08;;;;;;;35.50;14.27;;;;;;;10.69;55.88;102730.19;4961543;28;97133;-77